sensor_id;sensor_type;location;lat;lon;timestamp;P1;durP1;ratioP1;P2;durP2;ratioP2
42864;SDS011;28511;42.680;23.252;2024-03-25T00:03:10;0.20;;;0.20;;
42864;SDS011;28511;42.680;23.252;2024-03-25T00:08:48;0.85;;;0.63;;
42864;SDS011;28511;42.680;23.252;2024-03-25T00:11:26;0.30;;;0.30;;
42864;SDS011;28511;42.680;23.252;2024-03-25T00:13:54;0.20;;;0.20;;
42864;SDS011;28511;42.680;23.252;2024-03-25T00:16:39;1.55;;;0.73;;
42864;SDS011;28511;42.680;23.252;2024-03-25T00:19:04;0.20;;;0.20;;
42864;SDS011;28511;42.680;23.252;2024-03-25T00:22:14;0.40;;;0.40;;
42864;SDS011;28511;42.680;23.252;2024-03-25T00:27:06;0.20;;;0.20;;
42864;SDS011;28511;42.680;23.252;2024-03-25T00:29:42;1.17;;;0.52;;
42864;SDS011;28511;42.680;23.252;2024-03-25T00:38:42;3.42;;;1.05;;
42864;SDS011;28511;42.680;23.252;2024-03-25T00:41:31;0.20;;;0.20;;
42864;SDS011;28511;42.680;23.252;2024-03-25T02:21:06;0.20;;;0.20;;
42864;SDS011;28511;42.680;23.252;2024-03-25T02:23:34;0.20;;;0.20;;
42864;SDS011;28511;42.680;23.252;2024-03-25T02:26:41;0.30;;;0.30;;
42864;SDS011;28511;42.680;23.252;2024-03-25T02:29:34;0.20;;;0.20;;
42864;SDS011;28511;42.680;23.252;2024-03-25T02:35:22;0.20;;;0.20;;
42864;SDS011;28511;42.680;23.252;2024-03-25T02:37:56;0.52;;;0.35;;
42864;SDS011;28511;42.680;23.252;2024-03-25T02:49:41;0.30;;;0.30;;
42864;SDS011;28511;42.680;23.252;2024-03-25T02:52:08;0.20;;;0.20;;
42864;SDS011;28511;42.680;23.252;2024-03-25T03:20:31;0.22;;;0.22;;
42864;SDS011;28511;42.680;23.252;2024-03-25T03:22:57;0.20;;;0.20;;
42864;SDS011;28511;42.680;23.252;2024-03-25T03:25:25;0.22;;;0.22;;
42864;SDS011;28511;42.680;23.252;2024-03-25T03:27:58;0.40;;;0.40;;
42864;SDS011;28511;42.680;23.252;2024-03-25T03:30:41;0.20;;;0.20;;
42864;SDS011;28511;42.680;23.252;2024-03-25T03:36:28;0.30;;;0.30;;
42864;SDS011;28511;42.680;23.252;2024-03-25T03:39:27;0.45;;;0.45;;
42864;SDS011;28511;42.680;23.252;2024-03-25T03:41:57;1.30;;;0.70;;
42864;SDS011;28511;42.680;23.252;2024-03-25T03:44:54;0.35;;;0.35;;
42864;SDS011;28511;42.680;23.252;2024-03-25T03:47:40;0.30;;;0.30;;
42864;SDS011;28511;42.680;23.252;2024-03-25T03:50:10;0.20;;;0.20;;
42864;SDS011;28511;42.680;23.252;2024-03-25T03:52:48;1.00;;;0.50;;
42864;SDS011;28511;42.680;23.252;2024-03-25T03:55:36;0.35;;;0.35;;
42864;SDS011;28511;42.680;23.252;2024-03-25T04:01:38;0.60;;;0.60;;
42864;SDS011;28511;42.680;23.252;2024-03-25T04:13:37;3.75;;;0.82;;
42864;SDS011;28511;42.680;23.252;2024-03-25T04:22:18;0.28;;;0.28;;
42864;SDS011;28511;42.680;23.252;2024-03-25T04:25:28;1.17;;;1.05;;
42864;SDS011;28511;42.680;23.252;2024-03-25T04:34:22;0.30;;;0.30;;
42864;SDS011;28511;42.680;23.252;2024-03-25T04:40:08;0.30;;;0.30;;
42864;SDS011;28511;42.680;23.252;2024-03-25T04:45:52;2.47;;;2.28;;
42864;SDS011;28511;42.680;23.252;2024-03-25T04:54:15;0.95;;;0.95;;
42864;SDS011;28511;42.680;23.252;2024-03-25T04:59:44;3.38;;;1.73;;
42864;SDS011;28511;42.680;23.252;2024-03-25T05:08:49;1.38;;;0.93;;
42864;SDS011;28511;42.680;23.252;2024-03-25T05:14:43;0.68;;;0.68;;
42864;SDS011;28511;42.680;23.252;2024-03-25T05:24:10;1.42;;;1.38;;
42864;SDS011;28511;42.680;23.252;2024-03-25T05:30:13;0.65;;;0.65;;
42864;SDS011;28511;42.680;23.252;2024-03-25T05:35:47;2.95;;;1.27;;
42864;SDS011;28511;42.680;23.252;2024-03-25T05:38:19;0.90;;;0.90;;
42864;SDS011;28511;42.680;23.252;2024-03-25T05:44:36;2.05;;;1.95;;
42864;SDS011;28511;42.680;23.252;2024-03-25T06:16:27;1.45;;;1.35;;
42864;SDS011;28511;42.680;23.252;2024-03-25T06:38:55;3.28;;;1.52;;
42864;SDS011;28511;42.680;23.252;2024-03-25T06:57:10;3.42;;;1.48;;
42864;SDS011;28511;42.680;23.252;2024-03-25T06:59:53;2.33;;;1.92;;
42864;SDS011;28511;42.680;23.252;2024-03-25T07:02:27;2.92;;;2.00;;
42864;SDS011;28511;42.680;23.252;2024-03-25T07:08:20;1.33;;;1.23;;
42864;SDS011;28511;42.680;23.252;2024-03-25T07:11:19;2.55;;;2.05;;
42864;SDS011;28511;42.680;23.252;2024-03-25T07:17:26;3.17;;;1.70;;
42864;SDS011;28511;42.680;23.252;2024-03-25T07:23:00;6.72;;;2.20;;
42864;SDS011;28511;42.680;23.252;2024-03-25T07:25:39;2.38;;;1.45;;
42864;SDS011;28511;42.680;23.252;2024-03-25T07:31:18;1.40;;;1.30;;
42864;SDS011;28511;42.680;23.252;2024-03-25T07:34:09;2.58;;;1.25;;
42864;SDS011;28511;42.680;23.252;2024-03-25T07:37:02;2.45;;;1.10;;
42864;SDS011;28511;42.680;23.252;2024-03-25T07:39:35;2.78;;;2.33;;
42864;SDS011;28511;42.680;23.252;2024-03-25T07:44:59;2.35;;;1.23;;
42864;SDS011;28511;42.680;23.252;2024-03-25T07:47:25;2.28;;;1.38;;
42864;SDS011;28511;42.680;23.252;2024-03-25T07:49:57;1.52;;;1.42;;
42864;SDS011;28511;42.680;23.252;2024-03-25T07:52:24;1.70;;;1.55;;
42864;SDS011;28511;42.680;23.252;2024-03-25T07:55:00;1.25;;;1.15;;
42864;SDS011;28511;42.680;23.252;2024-03-25T07:57:26;2.22;;;1.85;;
42864;SDS011;28511;42.680;23.252;2024-03-25T08:02:36;3.92;;;2.08;;
42864;SDS011;28511;42.680;23.252;2024-03-25T08:05:08;2.08;;;1.88;;
42864;SDS011;28511;42.680;23.252;2024-03-25T08:07:36;2.72;;;2.08;;
42864;SDS011;28511;42.680;23.252;2024-03-25T08:10:04;2.72;;;1.50;;
42864;SDS011;28511;42.680;23.252;2024-03-25T08:12:31;4.60;;;2.72;;
42864;SDS011;28511;42.680;23.252;2024-03-25T08:14:56;3.15;;;2.10;;
42864;SDS011;28511;42.680;23.252;2024-03-25T08:17:22;1.63;;;1.52;;
42864;SDS011;28511;42.680;23.252;2024-03-25T08:19:47;0.73;;;0.60;;
42864;SDS011;28511;42.680;23.252;2024-03-25T08:22:13;1.48;;;0.80;;
42864;SDS011;28511;42.680;23.252;2024-03-25T08:24:40;2.08;;;0.88;;
42864;SDS011;28511;42.680;23.252;2024-03-25T08:27:09;1.20;;;1.10;;
42864;SDS011;28511;42.680;23.252;2024-03-25T08:29:37;2.40;;;1.42;;
42864;SDS011;28511;42.680;23.252;2024-03-25T08:32:02;2.03;;;1.07;;
42864;SDS011;28511;42.680;23.252;2024-03-25T08:34:31;3.25;;;1.67;;
42864;SDS011;28511;42.680;23.252;2024-03-25T08:36:59;1.45;;;1.35;;
42864;SDS011;28511;42.680;23.252;2024-03-25T08:39:25;3.08;;;1.55;;
42864;SDS011;28511;42.680;23.252;2024-03-25T08:41:53;6.25;;;2.05;;
42864;SDS011;28511;42.680;23.252;2024-03-25T08:44:18;2.72;;;1.65;;
42864;SDS011;28511;42.680;23.252;2024-03-25T08:46:48;2.35;;;1.50;;
42864;SDS011;28511;42.680;23.252;2024-03-25T08:51:39;1.35;;;1.15;;
42864;SDS011;28511;42.680;23.252;2024-03-25T08:54:26;1.42;;;1.33;;
42864;SDS011;28511;42.680;23.252;2024-03-25T08:57:02;1.10;;;1.02;;
42864;SDS011;28511;42.680;23.252;2024-03-25T08:59:48;2.50;;;1.77;;
42864;SDS011;28511;42.680;23.252;2024-03-25T09:02:13;2.05;;;1.60;;
42864;SDS011;28511;42.680;23.252;2024-03-25T09:04:39;2.08;;;0.95;;
42864;SDS011;28511;42.680;23.252;2024-03-25T09:07:04;2.80;;;1.80;;
42864;SDS011;28511;42.680;23.252;2024-03-25T09:09:29;2.15;;;1.92;;
42864;SDS011;28511;42.680;23.252;2024-03-25T09:12:14;2.42;;;1.95;;
42864;SDS011;28511;42.680;23.252;2024-03-25T09:14:39;0.70;;;0.70;;
42864;SDS011;28511;42.680;23.252;2024-03-25T09:17:05;2.05;;;1.65;;
42864;SDS011;28511;42.680;23.252;2024-03-25T09:19:30;1.20;;;0.93;;
42864;SDS011;28511;42.680;23.252;2024-03-25T09:21:55;1.08;;;0.98;;
42864;SDS011;28511;42.680;23.252;2024-03-25T09:24:21;3.90;;;2.83;;
42864;SDS011;28511;42.680;23.252;2024-03-25T09:26:52;1.40;;;1.30;;
42864;SDS011;28511;42.680;23.252;2024-03-25T09:29:18;1.17;;;1.13;;
42864;SDS011;28511;42.680;23.252;2024-03-25T09:31:45;3.45;;;2.33;;
42864;SDS011;28511;42.680;23.252;2024-03-25T09:34:13;3.92;;;1.33;;
42864;SDS011;28511;42.680;23.252;2024-03-25T09:36:38;2.47;;;1.75;;
42864;SDS011;28511;42.680;23.252;2024-03-25T09:39:03;3.08;;;2.17;;
42864;SDS011;28511;42.680;23.252;2024-03-25T09:41:35;2.15;;;0.88;;
42864;SDS011;28511;42.680;23.252;2024-03-25T09:44:02;7.30;;;1.92;;
42864;SDS011;28511;42.680;23.252;2024-03-25T09:46:30;5.97;;;1.85;;
42864;SDS011;28511;42.680;23.252;2024-03-25T09:48:55;1.30;;;1.25;;
42864;SDS011;28511;42.680;23.252;2024-03-25T09:51:23;2.63;;;2.28;;
42864;SDS011;28511;42.680;23.252;2024-03-25T09:53:48;1.45;;;1.17;;
42864;SDS011;28511;42.680;23.252;2024-03-25T09:56:14;1.92;;;1.30;;
42864;SDS011;28511;42.680;23.252;2024-03-25T09:58:40;10.73;;;1.67;;
42864;SDS011;28511;42.680;23.252;2024-03-25T10:01:07;5.60;;;1.73;;
42864;SDS011;28511;42.680;23.252;2024-03-25T10:03:33;1.67;;;1.55;;
42864;SDS011;28511;42.680;23.252;2024-03-25T10:05:59;1.25;;;1.17;;
42864;SDS011;28511;42.680;23.252;2024-03-25T10:08:28;2.67;;;1.38;;
42864;SDS011;28511;42.680;23.252;2024-03-25T10:11:00;0.90;;;0.75;;
42864;SDS011;28511;42.680;23.252;2024-03-25T10:13:27;1.25;;;1.05;;
42864;SDS011;28511;42.680;23.252;2024-03-25T10:15:54;2.42;;;1.40;;
42864;SDS011;28511;42.680;23.252;2024-03-25T10:18:21;4.00;;;1.65;;
42864;SDS011;28511;42.680;23.252;2024-03-25T10:20:51;1.60;;;0.83;;
42864;SDS011;28511;42.680;23.252;2024-03-25T10:23:20;2.10;;;1.77;;
42864;SDS011;28511;42.680;23.252;2024-03-25T10:25:47;1.63;;;1.52;;
42864;SDS011;28511;42.680;23.252;2024-03-25T10:28:14;1.67;;;1.23;;
42864;SDS011;28511;42.680;23.252;2024-03-25T10:30:41;1.30;;;1.13;;
42864;SDS011;28511;42.680;23.252;2024-03-25T10:33:08;0.70;;;0.70;;
42864;SDS011;28511;42.680;23.252;2024-03-25T10:35:35;1.48;;;0.88;;
42864;SDS011;28511;42.680;23.252;2024-03-25T10:38:01;1.48;;;1.38;;
42864;SDS011;28511;42.680;23.252;2024-03-25T10:40:30;1.55;;;0.88;;
42864;SDS011;28511;42.680;23.252;2024-03-25T10:43:01;2.25;;;1.15;;
42864;SDS011;28511;42.680;23.252;2024-03-25T10:45:30;5.28;;;1.55;;
42864;SDS011;28511;42.680;23.252;2024-03-25T10:47:57;5.22;;;2.00;;
42864;SDS011;28511;42.680;23.252;2024-03-25T10:50:29;4.60;;;1.98;;
42864;SDS011;28511;42.680;23.252;2024-03-25T10:52:55;1.02;;;1.02;;
42864;SDS011;28511;42.680;23.252;2024-03-25T10:55:21;2.97;;;1.60;;
42864;SDS011;28511;42.680;23.252;2024-03-25T10:57:47;2.72;;;1.27;;
42864;SDS011;28511;42.680;23.252;2024-03-25T11:00:13;5.07;;;0.95;;
42864;SDS011;28511;42.680;23.252;2024-03-25T11:02:42;1.08;;;1.00;;
42864;SDS011;28511;42.680;23.252;2024-03-25T11:05:08;15.15;;;1.77;;
42864;SDS011;28511;42.680;23.252;2024-03-25T11:07:35;2.05;;;0.80;;
42864;SDS011;28511;42.680;23.252;2024-03-25T11:10:05;1.55;;;0.82;;
42864;SDS011;28511;42.680;23.252;2024-03-25T11:12:38;1.52;;;1.13;;
42864;SDS011;28511;42.680;23.252;2024-03-25T11:15:05;0.95;;;0.85;;
42864;SDS011;28511;42.680;23.252;2024-03-25T11:17:31;2.88;;;1.67;;
42864;SDS011;28511;42.680;23.252;2024-03-25T11:22:53;2.38;;;1.08;;
42864;SDS011;28511;42.680;23.252;2024-03-25T11:25:21;1.75;;;1.30;;
42864;SDS011;28511;42.680;23.252;2024-03-25T11:27:47;1.20;;;1.20;;
42864;SDS011;28511;42.680;23.252;2024-03-25T11:30:15;1.27;;;1.17;;
42864;SDS011;28511;42.680;23.252;2024-03-25T11:35:09;1.08;;;0.77;;
42864;SDS011;28511;42.680;23.252;2024-03-25T11:37:44;1.02;;;0.95;;
42864;SDS011;28511;42.680;23.252;2024-03-25T11:40:22;5.82;;;0.98;;
42864;SDS011;28511;42.680;23.252;2024-03-25T11:42:50;4.28;;;1.67;;
42864;SDS011;28511;42.680;23.252;2024-03-25T11:45:16;1.27;;;0.65;;
42864;SDS011;28511;42.680;23.252;2024-03-25T11:47:45;0.93;;;0.93;;
42864;SDS011;28511;42.680;23.252;2024-03-25T11:50:14;1.33;;;1.23;;
42864;SDS011;28511;42.680;23.252;2024-03-25T11:52:40;4.32;;;2.15;;
42864;SDS011;28511;42.680;23.252;2024-03-25T11:55:06;0.73;;;0.73;;
42864;SDS011;28511;42.680;23.252;2024-03-25T11:57:37;1.73;;;1.33;;
42864;SDS011;28511;42.680;23.252;2024-03-25T12:00:02;3.35;;;0.70;;
42864;SDS011;28511;42.680;23.252;2024-03-25T12:02:37;0.60;;;0.60;;
42864;SDS011;28511;42.680;23.252;2024-03-25T12:05:08;1.67;;;1.38;;
42864;SDS011;28511;42.680;23.252;2024-03-25T12:07:33;1.45;;;1.35;;
42864;SDS011;28511;42.680;23.252;2024-03-25T12:10:00;2.30;;;0.75;;
42864;SDS011;28511;42.680;23.252;2024-03-25T12:12:44;1.30;;;0.70;;
42864;SDS011;28511;42.680;23.252;2024-03-25T12:15:10;0.52;;;0.52;;
42864;SDS011;28511;42.680;23.252;2024-03-25T12:17:36;3.05;;;1.42;;
42864;SDS011;28511;42.680;23.252;2024-03-25T12:20:05;0.50;;;0.50;;
42864;SDS011;28511;42.680;23.252;2024-03-25T12:22:31;3.67;;;1.60;;
42864;SDS011;28511;42.680;23.252;2024-03-25T12:24:58;0.30;;;0.30;;
42864;SDS011;28511;42.680;23.252;2024-03-25T12:27:26;0.40;;;0.40;;
42864;SDS011;28511;42.680;23.252;2024-03-25T12:30:01;1.58;;;1.23;;
42864;SDS011;28511;42.680;23.252;2024-03-25T12:32:30;0.45;;;0.45;;
42864;SDS011;28511;42.680;23.252;2024-03-25T12:34:56;1.17;;;0.93;;
42864;SDS011;28511;42.680;23.252;2024-03-25T12:37:22;0.88;;;0.60;;
42864;SDS011;28511;42.680;23.252;2024-03-25T12:39:50;1.77;;;1.23;;
42864;SDS011;28511;42.680;23.252;2024-03-25T12:42:16;0.80;;;0.73;;
42864;SDS011;28511;42.680;23.252;2024-03-25T12:44:45;1.00;;;0.70;;
42864;SDS011;28511;42.680;23.252;2024-03-25T12:47:13;1.50;;;0.82;;
42864;SDS011;28511;42.680;23.252;2024-03-25T12:49:39;0.60;;;0.60;;
42864;SDS011;28511;42.680;23.252;2024-03-25T12:52:05;0.77;;;0.77;;
42864;SDS011;28511;42.680;23.252;2024-03-25T12:54:33;0.50;;;0.47;;
42864;SDS011;28511;42.680;23.252;2024-03-25T12:56:59;1.25;;;1.15;;
42864;SDS011;28511;42.680;23.252;2024-03-25T12:59:25;4.35;;;1.23;;
42864;SDS011;28511;42.680;23.252;2024-03-25T13:01:50;0.70;;;0.70;;
42864;SDS011;28511;42.680;23.252;2024-03-25T13:04:16;1.17;;;0.88;;
42864;SDS011;28511;42.680;23.252;2024-03-25T13:06:44;2.70;;;1.52;;
42864;SDS011;28511;42.680;23.252;2024-03-25T13:09:10;6.53;;;2.28;;
42864;SDS011;28511;42.680;23.252;2024-03-25T13:11:35;1.52;;;0.93;;
42864;SDS011;28511;42.680;23.252;2024-03-25T13:14:01;0.70;;;0.70;;
42864;SDS011;28511;42.680;23.252;2024-03-25T13:16:26;0.70;;;0.70;;
42864;SDS011;28511;42.680;23.252;2024-03-25T13:18:52;0.70;;;0.70;;
42864;SDS011;28511;42.680;23.252;2024-03-25T13:21:21;0.75;;;0.75;;
42864;SDS011;28511;42.680;23.252;2024-03-25T13:23:49;1.27;;;0.95;;
42864;SDS011;28511;42.680;23.252;2024-03-25T13:26:14;0.75;;;0.75;;
42864;SDS011;28511;42.680;23.252;2024-03-25T13:28:39;0.82;;;0.82;;
42864;SDS011;28511;42.680;23.252;2024-03-25T13:31:04;2.35;;;1.05;;
42864;SDS011;28511;42.680;23.252;2024-03-25T13:33:30;0.40;;;0.40;;
42864;SDS011;28511;42.680;23.252;2024-03-25T13:35:55;0.57;;;0.45;;
42864;SDS011;28511;42.680;23.252;2024-03-25T13:38:21;1.08;;;0.85;;
42864;SDS011;28511;42.680;23.252;2024-03-25T13:40:46;1.70;;;0.60;;
42864;SDS011;28511;42.680;23.252;2024-03-25T13:43:11;0.68;;;0.68;;
42864;SDS011;28511;42.680;23.252;2024-03-25T13:45:45;1.80;;;1.17;;
42864;SDS011;28511;42.680;23.252;2024-03-25T13:48:13;0.70;;;0.60;;
42864;SDS011;28511;42.680;23.252;2024-03-25T13:50:39;0.75;;;0.75;;
42864;SDS011;28511;42.680;23.252;2024-03-25T13:53:05;0.52;;;0.52;;
42864;SDS011;28511;42.680;23.252;2024-03-25T13:55:31;0.85;;;0.82;;
42864;SDS011;28511;42.680;23.252;2024-03-25T13:57:56;14.13;;;0.73;;
42864;SDS011;28511;42.680;23.252;2024-03-25T14:00:22;0.52;;;0.52;;
42864;SDS011;28511;42.680;23.252;2024-03-25T14:02:48;0.65;;;0.30;;
42864;SDS011;28511;42.680;23.252;2024-03-25T14:05:13;0.50;;;0.50;;
42864;SDS011;28511;42.680;23.252;2024-03-25T14:07:43;0.47;;;0.47;;
42864;SDS011;28511;42.680;23.252;2024-03-25T14:10:25;2.72;;;2.15;;
42864;SDS011;28511;42.680;23.252;2024-03-25T14:12:50;0.95;;;0.95;;
42864;SDS011;28511;42.680;23.252;2024-03-25T14:15:19;0.55;;;0.50;;
42864;SDS011;28511;42.680;23.252;2024-03-25T14:17:45;0.30;;;0.30;;
42864;SDS011;28511;42.680;23.252;2024-03-25T14:22:39;0.52;;;0.52;;
42864;SDS011;28511;42.680;23.252;2024-03-25T14:25:05;0.95;;;0.55;;
42864;SDS011;28511;42.680;23.252;2024-03-25T14:27:31;0.50;;;0.50;;
42864;SDS011;28511;42.680;23.252;2024-03-25T14:29:57;0.30;;;0.30;;
42864;SDS011;28511;42.680;23.252;2024-03-25T14:32:24;1.05;;;0.43;;
42864;SDS011;28511;42.680;23.252;2024-03-25T14:34:50;0.20;;;0.20;;
42864;SDS011;28511;42.680;23.252;2024-03-25T14:37:19;0.45;;;0.45;;
42864;SDS011;28511;42.680;23.252;2024-03-25T14:39:47;0.73;;;0.70;;
42864;SDS011;28511;42.680;23.252;2024-03-25T14:42:13;0.40;;;0.40;;
42864;SDS011;28511;42.680;23.252;2024-03-25T14:44:38;0.40;;;0.40;;
42864;SDS011;28511;42.680;23.252;2024-03-25T14:47:04;0.47;;;0.47;;
42864;SDS011;28511;42.680;23.252;2024-03-25T14:49:30;0.63;;;0.63;;
42864;SDS011;28511;42.680;23.252;2024-03-25T14:51:56;0.52;;;0.52;;
42864;SDS011;28511;42.680;23.252;2024-03-25T14:54:34;0.90;;;0.65;;
42864;SDS011;28511;42.680;23.252;2024-03-25T14:57:01;0.50;;;0.50;;
42864;SDS011;28511;42.680;23.252;2024-03-25T14:59:27;0.77;;;0.77;;
42864;SDS011;28511;42.680;23.252;2024-03-25T15:01:53;1.15;;;1.05;;
42864;SDS011;28511;42.680;23.252;2024-03-25T15:04:19;0.40;;;0.40;;
42864;SDS011;28511;42.680;23.252;2024-03-25T15:06:47;0.50;;;0.50;;
42864;SDS011;28511;42.680;23.252;2024-03-25T15:09:12;2.10;;;1.30;;
42864;SDS011;28511;42.680;23.252;2024-03-25T15:11:39;0.60;;;0.60;;
42864;SDS011;28511;42.680;23.252;2024-03-25T15:14:07;2.58;;;1.13;;
42864;SDS011;28511;42.680;23.252;2024-03-25T15:16:35;0.63;;;0.63;;
42864;SDS011;28511;42.680;23.252;2024-03-25T15:19:01;2.72;;;0.65;;
42864;SDS011;28511;42.680;23.252;2024-03-25T15:21:26;1.65;;;1.27;;
42864;SDS011;28511;42.680;23.252;2024-03-25T15:24:05;0.95;;;0.63;;
42864;SDS011;28511;42.680;23.252;2024-03-25T15:26:42;0.45;;;0.45;;
42864;SDS011;28511;42.680;23.252;2024-03-25T15:29:07;1.13;;;0.93;;
42864;SDS011;28511;42.680;23.252;2024-03-25T15:31:32;1.45;;;0.70;;
42864;SDS011;28511;42.680;23.252;2024-03-25T15:33:58;0.50;;;0.50;;
42864;SDS011;28511;42.680;23.252;2024-03-25T15:36:24;4.60;;;1.50;;
42864;SDS011;28511;42.680;23.252;2024-03-25T15:38:51;0.40;;;0.40;;
42864;SDS011;28511;42.680;23.252;2024-03-25T15:41:16;0.63;;;0.63;;
42864;SDS011;28511;42.680;23.252;2024-03-25T15:43:43;1.77;;;0.68;;
42864;SDS011;28511;42.680;23.252;2024-03-25T15:46:11;1.27;;;0.77;;
42864;SDS011;28511;42.680;23.252;2024-03-25T15:48:37;5.00;;;0.77;;
42864;SDS011;28511;42.680;23.252;2024-03-25T15:51:03;0.98;;;0.73;;
42864;SDS011;28511;42.680;23.252;2024-03-25T15:53:31;1.45;;;1.35;;
42864;SDS011;28511;42.680;23.252;2024-03-25T15:55:57;0.45;;;0.45;;
42864;SDS011;28511;42.680;23.252;2024-03-25T15:58:24;4.70;;;2.22;;
42864;SDS011;28511;42.680;23.252;2024-03-25T16:00:59;0.68;;;0.68;;
42864;SDS011;28511;42.680;23.252;2024-03-25T16:06:16;1.02;;;0.93;;
42864;SDS011;28511;42.680;23.252;2024-03-25T16:08:43;1.05;;;1.00;;
42864;SDS011;28511;42.680;23.252;2024-03-25T16:14:48;0.68;;;0.68;;
42864;SDS011;28511;42.680;23.252;2024-03-25T16:23:31;2.08;;;1.08;;
42864;SDS011;28511;42.680;23.252;2024-03-25T16:25:57;1.35;;;1.27;;
42864;SDS011;28511;42.680;23.252;2024-03-25T16:28:22;0.88;;;0.88;;
42864;SDS011;28511;42.680;23.252;2024-03-25T16:30:47;2.42;;;1.30;;
42864;SDS011;28511;42.680;23.252;2024-03-25T16:33:14;1.65;;;1.55;;
42864;SDS011;28511;42.680;23.252;2024-03-25T16:35:40;1.42;;;1.13;;
42864;SDS011;28511;42.680;23.252;2024-03-25T16:38:08;5.38;;;2.05;;
42864;SDS011;28511;42.680;23.252;2024-03-25T16:40:37;1.95;;;1.80;;
42864;SDS011;28511;42.680;23.252;2024-03-25T16:43:04;3.30;;;2.05;;
42864;SDS011;28511;42.680;23.252;2024-03-25T16:45:30;1.17;;;1.08;;
42864;SDS011;28511;42.680;23.252;2024-03-25T16:47:55;1.25;;;1.15;;
42864;SDS011;28511;42.680;23.252;2024-03-25T16:50:20;1.58;;;1.10;;
42864;SDS011;28511;42.680;23.252;2024-03-25T16:52:46;1.33;;;1.23;;
42864;SDS011;28511;42.680;23.252;2024-03-25T16:55:11;1.00;;;1.00;;
42864;SDS011;28511;42.680;23.252;2024-03-25T16:57:37;0.60;;;0.60;;
42864;SDS011;28511;42.680;23.252;2024-03-25T17:00:03;1.10;;;0.93;;
42864;SDS011;28511;42.680;23.252;2024-03-25T17:02:34;1.50;;;1.30;;
42864;SDS011;28511;42.680;23.252;2024-03-25T17:05:00;0.90;;;0.90;;
42864;SDS011;28511;42.680;23.252;2024-03-25T17:07:28;0.75;;;0.75;;
42864;SDS011;28511;42.680;23.252;2024-03-25T17:10:13;1.88;;;0.65;;
42864;SDS011;28511;42.680;23.252;2024-03-25T17:12:38;0.50;;;0.50;;
42864;SDS011;28511;42.680;23.252;2024-03-25T17:15:06;3.40;;;1.40;;
42864;SDS011;28511;42.680;23.252;2024-03-25T17:17:38;1.50;;;1.40;;
42864;SDS011;28511;42.680;23.252;2024-03-25T17:20:07;0.93;;;0.93;;
42864;SDS011;28511;42.680;23.252;2024-03-25T17:22:38;2.45;;;1.10;;
42864;SDS011;28511;42.680;23.252;2024-03-25T17:28:13;2.75;;;1.95;;
42864;SDS011;28511;42.680;23.252;2024-03-25T17:30:39;0.60;;;0.60;;
42864;SDS011;28511;42.680;23.252;2024-03-25T17:33:04;0.55;;;0.55;;
42864;SDS011;28511;42.680;23.252;2024-03-25T17:35:32;1.65;;;1.30;;
42864;SDS011;28511;42.680;23.252;2024-03-25T17:37:58;1.50;;;1.23;;
42864;SDS011;28511;42.680;23.252;2024-03-25T17:40:25;1.98;;;1.35;;
42864;SDS011;28511;42.680;23.252;2024-03-25T17:43:02;0.93;;;0.88;;
42864;SDS011;28511;42.680;23.252;2024-03-25T17:45:30;1.10;;;1.00;;
42864;SDS011;28511;42.680;23.252;2024-03-25T17:51:14;1.05;;;0.88;;
42864;SDS011;28511;42.680;23.252;2024-03-25T17:53:43;0.47;;;0.47;;
42864;SDS011;28511;42.680;23.252;2024-03-25T17:56:08;1.20;;;0.77;;
42864;SDS011;28511;42.680;23.252;2024-03-25T18:01:17;8.10;;;1.80;;
42864;SDS011;28511;42.680;23.252;2024-03-25T18:03:56;1.83;;;1.73;;
42864;SDS011;28511;42.680;23.252;2024-03-25T18:06:32;2.15;;;1.38;;
42864;SDS011;28511;42.680;23.252;2024-03-25T18:11:58;1.23;;;0.88;;
42864;SDS011;28511;42.680;23.252;2024-03-25T18:17:05;0.55;;;0.55;;
42864;SDS011;28511;42.680;23.252;2024-03-25T18:19:39;1.17;;;1.15;;
42864;SDS011;28511;42.680;23.252;2024-03-25T18:22:07;1.42;;;0.90;;
42864;SDS011;28511;42.680;23.252;2024-03-25T18:24:48;0.68;;;0.63;;
42864;SDS011;28511;42.680;23.252;2024-03-25T18:27:54;1.58;;;0.98;;
42864;SDS011;28511;42.680;23.252;2024-03-25T18:33:37;1.42;;;1.33;;
42864;SDS011;28511;42.680;23.252;2024-03-25T18:36:26;0.77;;;0.70;;
42864;SDS011;28511;42.680;23.252;2024-03-25T18:39:11;1.48;;;0.95;;
42864;SDS011;28511;42.680;23.252;2024-03-25T18:44:49;0.65;;;0.65;;
42864;SDS011;28511;42.680;23.252;2024-03-25T18:47:55;0.60;;;0.60;;
42864;SDS011;28511;42.680;23.252;2024-03-25T19:02:32;2.03;;;1.03;;
42864;SDS011;28511;42.680;23.252;2024-03-25T19:07:44;2.60;;;1.35;;
42864;SDS011;28511;42.680;23.252;2024-03-25T19:13:11;2.58;;;1.55;;
42864;SDS011;28511;42.680;23.252;2024-03-25T19:15:37;0.70;;;0.68;;
42864;SDS011;28511;42.680;23.252;2024-03-25T19:23:41;1.33;;;1.27;;
42864;SDS011;28511;42.680;23.252;2024-03-25T19:26:30;0.52;;;0.52;;
42864;SDS011;28511;42.680;23.252;2024-03-25T19:29:09;0.95;;;0.95;;
42864;SDS011;28511;42.680;23.252;2024-03-25T19:31:35;0.63;;;0.63;;
42864;SDS011;28511;42.680;23.252;2024-03-25T19:35:07;1.73;;;1.42;;
42864;SDS011;28511;42.680;23.252;2024-03-25T19:40:03;0.55;;;0.55;;
42864;SDS011;28511;42.680;23.252;2024-03-25T19:42:38;0.57;;;0.57;;
42864;SDS011;28511;42.680;23.252;2024-03-25T19:48:02;3.00;;;1.65;;
42864;SDS011;28511;42.680;23.252;2024-03-25T20:06:06;0.65;;;0.60;;
42864;SDS011;28511;42.680;23.252;2024-03-25T20:20:43;1.55;;;1.15;;
42864;SDS011;28511;42.680;23.252;2024-03-25T20:47:41;1.77;;;1.08;;
42864;SDS011;28511;42.680;23.252;2024-03-25T20:50:10;1.08;;;0.98;;
42864;SDS011;28511;42.680;23.252;2024-03-25T21:01:49;0.65;;;0.65;;
42864;SDS011;28511;42.680;23.252;2024-03-25T21:15:00;3.88;;;1.65;;
42864;SDS011;28511;42.680;23.252;2024-03-25T21:20:39;1.05;;;0.95;;
42864;SDS011;28511;42.680;23.252;2024-03-25T21:23:05;0.77;;;0.50;;
42864;SDS011;28511;42.680;23.252;2024-03-25T21:25:33;1.10;;;0.93;;
42864;SDS011;28511;42.680;23.252;2024-03-25T21:30:52;1.50;;;0.77;;
42864;SDS011;28511;42.680;23.252;2024-03-25T21:33:19;0.32;;;0.32;;
42864;SDS011;28511;42.680;23.252;2024-03-25T21:38:48;8.07;;;0.90;;
42864;SDS011;28511;42.680;23.252;2024-03-25T21:43:53;0.75;;;0.75;;
42864;SDS011;28511;42.680;23.252;2024-03-25T21:49:31;0.50;;;0.50;;
42864;SDS011;28511;42.680;23.252;2024-03-25T21:52:04;0.82;;;0.80;;
42864;SDS011;28511;42.680;23.252;2024-03-25T21:54:40;1.23;;;1.15;;
42864;SDS011;28511;42.680;23.252;2024-03-25T21:57:08;11.13;;;3.10;;
42864;SDS011;28511;42.680;23.252;2024-03-25T21:59:40;6.85;;;3.22;;
42864;SDS011;28511;42.680;23.252;2024-03-25T22:02:08;6.75;;;4.80;;
42864;SDS011;28511;42.680;23.252;2024-03-25T22:07:36;10.25;;;3.28;;
42864;SDS011;28511;42.680;23.252;2024-03-25T22:13:22;9.60;;;3.47;;
42864;SDS011;28511;42.680;23.252;2024-03-25T22:15:56;5.07;;;3.05;;
42864;SDS011;28511;42.680;23.252;2024-03-25T22:18:25;5.30;;;3.75;;
42864;SDS011;28511;42.680;23.252;2024-03-25T22:20:58;2.72;;;2.53;;
42864;SDS011;28511;42.680;23.252;2024-03-25T22:23:23;4.72;;;2.47;;
42864;SDS011;28511;42.680;23.252;2024-03-25T22:25:48;6.47;;;2.83;;
42864;SDS011;28511;42.680;23.252;2024-03-25T22:28:26;6.07;;;1.77;;
42864;SDS011;28511;42.680;23.252;2024-03-25T22:31:13;1.83;;;1.45;;
42864;SDS011;28511;42.680;23.252;2024-03-25T22:33:41;3.08;;;2.08;;
42864;SDS011;28511;42.680;23.252;2024-03-25T22:36:06;3.55;;;2.25;;
42864;SDS011;28511;42.680;23.252;2024-03-25T22:38:32;2.30;;;2.00;;
42864;SDS011;28511;42.680;23.252;2024-03-25T22:41:00;4.93;;;2.92;;